createdAt,value
2016-05-07T00:00:21.887Z,15.26
2016-05-07T00:01:21.718Z,15.2
2016-05-07T00:02:21.861Z,15.13
2016-05-07T00:03:21.864Z,15.13
2016-05-07T00:04:21.851Z,15.17
2016-05-07T00:05:21.837Z,15.09
2016-05-07T00:06:21.669Z,15.01
2016-05-07T00:07:21.812Z,14.95
2016-05-07T00:08:21.800Z,14.98
2016-05-07T00:09:21.802Z,14.93
2016-05-07T00:10:21.773Z,14.95
2016-05-07T00:11:21.775Z,14.88
2016-05-07T00:12:21.748Z,14.9
2016-05-07T00:13:21.734Z,14.8
2016-05-07T00:14:21.736Z,14.84
2016-05-07T00:15:21.569Z,14.83
2016-05-07T00:16:21.711Z,14.83
2016-05-07T00:17:21.698Z,14.8
2016-05-07T00:18:21.685Z,14.72
2016-05-07T00:19:21.532Z,14.78
2016-05-07T00:20:21.503Z,14.72
2016-05-07T00:21:21.506Z,14.8
2016-05-07T00:22:21.649Z,14.75
2016-05-07T00:23:21.355Z,14.72
2016-05-07T00:24:21.623Z,14.72
2016-05-07T00:25:21.610Z,14.74
2016-05-07T00:26:21.598Z,14.72
2016-05-07T00:27:22.444Z,14.65
2016-05-07T00:28:21.571Z,14.69
2016-05-07T00:29:21.559Z,14.65
2016-05-07T00:30:21.545Z,14.61
2016-05-07T00:31:21.237Z,14.62
2016-05-07T00:32:21.535Z,14.6
2016-05-07T00:33:21.523Z,14.56
2016-05-07T00:34:21.712Z,14.57
2016-05-07T00:35:21.497Z,14.49
2016-05-07T00:36:21.484Z,14.57
2016-05-07T00:37:21.470Z,14.5
2016-05-07T00:38:21.459Z,14.5
2016-05-07T00:39:21.445Z,14.5
2016-05-07T00:40:21.432Z,14.44
2016-05-07T00:41:21.434Z,14.5
2016-05-07T00:42:21.422Z,14.47
2016-05-07T00:43:21.252Z,14.44
2016-05-07T00:44:21.411Z,14.44
2016-05-07T00:45:21.383Z,14.44
2016-05-07T00:46:21.370Z,14.44
2016-05-07T00:47:21.200Z,14.5
2016-05-07T00:48:21.360Z,14.38
2016-05-07T00:49:21.347Z,14.39
2016-05-07T00:50:21.318Z,14.37
2016-05-07T00:51:21.321Z,14.32
2016-05-07T00:52:21.136Z,14.35
2016-05-07T00:53:21.279Z,14.37
2016-05-07T00:54:21.110Z,14.25
2016-05-07T00:55:21.113Z,14.28
2016-05-07T00:56:21.100Z,14.32
2016-05-07T00:57:21.744Z,14.31
2016-05-07T00:58:21.073Z,14.28
2016-05-07T00:59:21.218Z,14.25
2016-05-07T01:00:21.048Z,14.25
2016-05-07T01:01:21.192Z,14.29
2016-05-07T01:02:21.194Z,14.32
2016-05-07T01:03:21.181Z,14.2
2016-05-07T01:04:21.012Z,14.16
2016-05-07T01:05:21.140Z,14.14
2016-05-07T01:06:21.143Z,14.14
2016-05-07T01:07:21.129Z,14.09
2016-05-07T01:08:21.132Z,14.1
2016-05-07T01:09:21.103Z,14.09
2016-05-07T01:10:20.950Z,14.14
2016-05-07T01:11:21.078Z,14.1
2016-05-07T01:12:21.065Z,14.13
2016-05-07T01:13:21.052Z,14.14
2016-05-07T01:14:20.883Z,14.04
2016-05-07T01:15:20.870Z,14.1
2016-05-07T01:16:21.013Z,14.06
2016-05-07T01:17:21.016Z,13.96
2016-05-07T01:18:20.831Z,14.06
2016-05-07T01:19:20.974Z,14.07
2016-05-07T01:20:20.805Z,14.09
2016-05-07T01:21:20.963Z,14.02
2016-05-07T01:22:20.952Z,14.1
2016-05-07T01:23:20.938Z,14.01
2016-05-07T01:24:20.925Z,14.01
2016-05-07T01:25:20.912Z,13.99
2016-05-07T01:26:20.900Z,14.07
2016-05-07T01:27:20.901Z,14.09
2016-05-07T01:28:20.874Z,14.06
2016-05-07T01:29:20.861Z,13.92
2016-05-07T01:30:20.848Z,13.95
2016-05-07T01:31:20.850Z,13.94
2016-05-07T01:32:20.822Z,13.96
2016-05-07T01:33:20.809Z,13.89
2016-05-07T01:34:20.640Z,13.96
2016-05-07T01:35:20.784Z,13.88
2016-05-07T01:36:20.786Z,13.89
2016-05-07T01:37:20.601Z,13.95
2016-05-07T01:38:20.744Z,13.94
2016-05-07T01:39:20.747Z,13.95
2016-05-07T01:40:20.734Z,13.77
2016-05-07T01:41:20.730Z,13.79
2016-05-07T01:42:20.549Z,13.91
2016-05-07T01:43:20.708Z,13.81
2016-05-07T01:44:21.426Z,13.92
2016-05-07T01:45:20.663Z,13.81
2016-05-07T01:46:20.665Z,13.81
2016-05-07T01:47:20.637Z,13.8
2016-05-07T01:48:20.624Z,13.81
2016-05-07T01:49:20.626Z,13.79
2016-05-07T01:50:20.613Z,13.81
2016-05-07T01:51:20.273Z,13.87
2016-05-07T01:52:20.587Z,13.87
2016-05-07T01:53:20.589Z,13.73
2016-05-07T01:54:20.562Z,13.76
2016-05-07T01:55:20.548Z,13.76
2016-05-07T01:56:20.536Z,13.77
2016-05-07T01:57:22.148Z,13.69
2016-05-07T01:58:20.525Z,13.62
2016-05-07T01:59:20.341Z,13.61
2016-05-07T02:00:20.344Z,13.58
2016-05-07T02:01:20.486Z,13.63
2016-05-07T02:02:20.146Z,13.61
2016-05-07T02:03:20.289Z,13.63
2016-05-07T02:04:20.432Z,13.67
2016-05-07T02:05:20.419Z,13.55
2016-05-07T02:06:20.407Z,13.58
2016-05-07T02:07:20.410Z,13.62
2016-05-07T02:08:20.396Z,13.58
2016-05-07T02:09:20.383Z,13.63
2016-05-07T02:10:20.385Z,13.56
2016-05-07T02:11:20.341Z,13.58
2016-05-07T02:12:20.344Z,13.54
2016-05-07T02:13:20.332Z,13.58
2016-05-07T02:14:20.162Z,13.55
2016-05-07T02:15:20.290Z,13.52
2016-05-07T02:16:20.308Z,13.56
2016-05-07T02:17:20.280Z,13.58
2016-05-07T02:18:20.267Z,13.59
2016-05-07T02:19:20.254Z,13.61
2016-05-07T02:20:20.240Z,13.52
2016-05-07T02:21:20.072Z,13.59
2016-05-07T02:22:20.058Z,13.54
2016-05-07T02:23:20.218Z,13.52
2016-05-07T02:24:20.192Z,13.55
2016-05-07T02:25:20.023Z,13.52
2016-05-07T02:26:20.010Z,13.46
2016-05-07T02:27:20.934Z,13.46
2016-05-07T02:28:20.140Z,13.33
2016-05-07T02:29:20.128Z,13.4
2016-05-07T02:30:20.099Z,13.4
2016-05-07T02:31:20.101Z,13.37
2016-05-07T02:32:20.135Z,13.36
2016-05-07T02:33:20.075Z,13.25
2016-05-07T02:34:20.267Z,13.3
2016-05-07T02:35:20.050Z,13.24
2016-05-07T02:36:20.037Z,13.27
2016-05-07T02:37:19.867Z,13.32
2016-05-07T02:38:20.010Z,13.24
2016-05-07T02:39:20.014Z,13.2
2016-05-07T02:40:19.986Z,13.18
2016-05-07T02:41:19.988Z,13.15
2016-05-07T02:42:21.616Z,13.21
2016-05-07T02:43:19.946Z,13.21
2016-05-07T02:44:19.949Z,13.2
2016-05-07T02:45:19.936Z,13.09
2016-05-07T02:46:19.908Z,13.12
2016-05-07T02:47:19.894Z,13.17
2016-05-07T02:48:19.882Z,13.17
2016-05-07T02:49:19.868Z,13.17
2016-05-07T02:50:19.856Z,13.21
2016-05-07T02:51:19.874Z,13.11
2016-05-07T02:52:19.674Z,13.24
2016-05-07T02:53:19.817Z,13.22
2016-05-07T02:54:19.820Z,13.12
2016-05-07T02:55:19.823Z,13.06
2016-05-07T02:56:19.793Z,13.17
2016-05-07T02:57:19.468Z,13.2
2016-05-07T02:58:19.815Z,13.17
2016-05-07T02:59:19.598Z,13.09
2016-05-07T03:00:19.742Z,13.09
2016-05-07T03:01:19.573Z,13.18
2016-05-07T03:02:19.716Z,13.09
2016-05-07T03:03:19.703Z,13.12
2016-05-07T03:04:19.534Z,13.11
2016-05-07T03:05:19.678Z,13
2016-05-07T03:06:19.664Z,12.99
2016-05-07T03:07:19.495Z,12.97
2016-05-07T03:08:19.638Z,12.97
2016-05-07T03:09:19.625Z,12.99
2016-05-07T03:10:19.613Z,13
2016-05-07T03:11:19.600Z,12.95
2016-05-07T03:12:19.711Z,13.02
2016-05-07T03:13:19.574Z,12.99
2016-05-07T03:14:19.576Z,13.06
2016-05-07T03:15:19.549Z,12.92
2016-05-07T03:16:19.535Z,12.97
2016-05-07T03:17:19.522Z,12.97
2016-05-07T03:18:19.352Z,12.97
2016-05-07T03:19:19.340Z,12.92
2016-05-07T03:20:19.482Z,12.97
2016-05-07T03:21:19.315Z,13
2016-05-07T03:22:19.457Z,12.97
2016-05-07T03:23:19.445Z,12.96
2016-05-07T03:24:19.431Z,12.89
2016-05-07T03:25:19.419Z,12.87
2016-05-07T03:26:19.406Z,12.88
2016-05-07T03:27:19.706Z,12.92
2016-05-07T03:28:19.379Z,12.85
2016-05-07T03:29:19.367Z,12.93
2016-05-07T03:30:19.353Z,12.87
2016-05-07T03:31:19.342Z,12.84
2016-05-07T03:32:19.344Z,12.84
2016-05-07T03:33:19.331Z,12.84
2016-05-07T03:34:19.317Z,12.84
2016-05-07T03:35:19.290Z,12.77
2016-05-07T03:36:19.120Z,12.74
2016-05-07T03:37:19.264Z,12.71
2016-05-07T03:38:19.094Z,12.71
2016-05-07T03:39:19.081Z,12.7
2016-05-07T03:40:19.224Z,12.69
2016-05-07T03:41:19.212Z,12.69
2016-05-07T03:42:19.199Z,12.67
2016-05-07T03:43:19.185Z,12.67
2016-05-07T03:44:19.172Z,12.62
2016-05-07T03:45:19.004Z,12.64
2016-05-07T03:46:19.147Z,12.56
2016-05-07T03:47:19.135Z,12.62
2016-05-07T03:48:18.965Z,12.64
2016-05-07T03:49:19.124Z,12.6
2016-05-07T03:50:19.111Z,12.59
2016-05-07T03:51:18.926Z,12.59
2016-05-07T03:52:19.069Z,12.51
2016-05-07T03:53:19.071Z,12.54
2016-05-07T03:54:19.043Z,12.54
2016-05-07T03:55:19.031Z,12.48
2016-05-07T03:56:18.861Z,12.45
2016-05-07T03:57:18.865Z,12.44
2016-05-07T03:58:19.007Z,12.44
2016-05-07T03:59:18.979Z,12.52
2016-05-07T04:00:18.965Z,12.54
2016-05-07T04:01:18.953Z,12.49
2016-05-07T04:02:18.940Z,12.49
2016-05-07T04:03:18.770Z,12.44
2016-05-07T04:04:18.914Z,12.52
2016-05-07T04:05:18.901Z,12.46
2016-05-07T04:06:18.889Z,12.49
2016-05-07T04:07:18.875Z,12.49
2016-05-07T04:08:18.862Z,12.54
2016-05-07T04:09:18.865Z,12.66
2016-05-07T04:10:18.680Z,12.57
2016-05-07T04:11:18.667Z,12.51
2016-05-07T04:12:18.952Z,12.54
2016-05-07T04:13:18.797Z,12.49
2016-05-07T04:14:18.785Z,12.62
2016-05-07T04:15:18.772Z,12.52
2016-05-07T04:16:18.758Z,12.48
2016-05-07T04:17:18.761Z,12.57
2016-05-07T04:18:18.733Z,12.51
2016-05-07T04:19:18.721Z,12.51
2016-05-07T04:20:18.707Z,12.56
2016-05-07T04:21:18.538Z,12.6
2016-05-07T04:22:18.696Z,12.52
2016-05-07T04:23:18.684Z,12.48
2016-05-07T04:24:18.655Z,12.52
2016-05-07T04:25:18.487Z,12.6
2016-05-07T04:26:18.645Z,12.54
2016-05-07T04:27:20.195Z,12.59
2016-05-07T04:28:18.620Z,12.63
2016-05-07T04:29:18.606Z,12.54
2016-05-07T04:30:18.578Z,12.67
2016-05-07T04:31:18.565Z,12.54
2016-05-07T04:32:18.551Z,12.56
2016-05-07T04:33:18.539Z,12.69
2016-05-07T04:34:18.729Z,12.69
2016-05-07T04:35:18.513Z,12.59
2016-05-07T04:36:18.501Z,12.66
2016-05-07T04:37:18.487Z,12.7
2016-05-07T04:38:18.317Z,12.75
2016-05-07T04:39:18.306Z,12.74
2016-05-07T04:40:18.448Z,12.69
2016-05-07T04:41:18.279Z,12.78
2016-05-07T04:42:18.422Z,12.78
2016-05-07T04:43:18.411Z,12.77
2016-05-07T04:44:18.397Z,12.74
2016-05-07T04:45:18.383Z,12.78
2016-05-07T04:46:18.371Z,12.78
2016-05-07T04:47:18.358Z,12.85
2016-05-07T04:48:18.345Z,12.82
2016-05-07T04:49:18.332Z,12.87
2016-05-07T04:50:18.319Z,12.88
2016-05-07T04:51:18.322Z,12.82
2016-05-07T04:52:18.293Z,12.92
2016-05-07T04:53:18.280Z,12.85
2016-05-07T04:54:18.110Z,12.87
2016-05-07T04:55:18.098Z,12.88
2016-05-07T04:56:18.085Z,12.97
2016-05-07T04:57:18.229Z,12.97
2016-05-07T04:58:18.215Z,13
2016-05-07T04:59:18.203Z,13.06
2016-05-07T05:00:18.034Z,13.06
2016-05-07T05:01:18.177Z,13.12
2016-05-07T05:02:18.164Z,13.12
2016-05-07T05:03:18.151Z,13.15
2016-05-07T05:04:18.137Z,13.3
2016-05-07T05:05:18.126Z,13.21
2016-05-07T05:06:18.112Z,13.32
2016-05-07T05:07:18.114Z,13.43
2016-05-07T05:08:17.930Z,13.43
2016-05-07T05:09:17.933Z,13.32
2016-05-07T05:10:18.076Z,13.4
2016-05-07T05:11:18.064Z,13.41
2016-05-07T05:12:18.128Z,13.52
2016-05-07T05:13:18.037Z,13.44
2016-05-07T05:14:18.008Z,13.49
2016-05-07T05:15:17.855Z,13.56
2016-05-07T05:16:17.999Z,13.58
2016-05-07T05:17:17.970Z,13.61
2016-05-07T05:18:17.816Z,13.7
2016-05-07T05:19:17.960Z,13.71
2016-05-07T05:20:17.947Z,13.67
2016-05-07T05:21:17.777Z,13.81
2016-05-07T05:22:17.937Z,13.8
2016-05-07T05:23:17.908Z,13.8
2016-05-07T05:24:17.879Z,13.92
2016-05-07T05:25:17.882Z,13.87
2016-05-07T05:26:17.869Z,13.95
2016-05-07T05:27:17.871Z,13.98
2016-05-07T05:28:17.843Z,14.01
2016-05-07T05:29:17.674Z,13.99
2016-05-07T05:30:17.818Z,14.09
2016-05-07T05:31:17.820Z,14.06
2016-05-07T05:32:17.635Z,14.14
2016-05-07T05:33:17.623Z,14.12
2016-05-07T05:34:17.765Z,14.21
2016-05-07T05:35:17.768Z,14.2
2016-05-07T05:36:17.740Z,14.35
2016-05-07T05:37:17.586Z,14.32
2016-05-07T05:38:17.729Z,14.37
2016-05-07T05:39:17.717Z,14.44
2016-05-07T05:40:17.703Z,14.54
2016-05-07T05:41:17.692Z,14.57
2016-05-07T05:42:18.006Z,14.49
2016-05-07T05:43:17.664Z,14.53
2016-05-07T05:44:17.653Z,14.54
2016-05-07T05:45:17.639Z,14.67
2016-05-07T05:46:17.626Z,14.67
2016-05-07T05:47:17.613Z,14.68
2016-05-07T05:48:17.600Z,14.74
2016-05-07T05:49:17.588Z,14.65
2016-05-07T05:50:17.433Z,14.69
2016-05-07T05:51:17.577Z,14.78
2016-05-07T05:52:17.564Z,14.86
2016-05-07T05:53:17.536Z,14.84
2016-05-07T05:54:17.538Z,14.86
2016-05-07T05:55:17.525Z,14.87
2016-05-07T05:56:17.513Z,14.9
2016-05-07T05:57:17.562Z,14.99
2016-05-07T05:58:17.330Z,14.93
2016-05-07T05:59:17.490Z,14.98
2016-05-07T06:00:17.461Z,15.03
2016-05-07T06:01:17.448Z,15.15
2016-05-07T06:02:17.498Z,15.24
2016-05-07T06:03:17.265Z,15.24
2016-05-07T06:04:17.112Z,15.26
2016-05-07T06:05:17.412Z,15.3
2016-05-07T06:06:17.399Z,15.38
2016-05-07T06:07:17.401Z,15.41
2016-05-07T06:08:17.373Z,15.43
2016-05-07T06:09:17.360Z,15.48
2016-05-07T06:10:17.348Z,15.56
2016-05-07T06:11:17.334Z,15.52
2016-05-07T06:12:17.602Z,15.59
2016-05-07T06:13:17.152Z,15.54
2016-05-07T06:14:17.295Z,15.6
2016-05-07T06:15:17.298Z,15.64
2016-05-07T06:16:17.286Z,15.66
2016-05-07T06:17:17.272Z,15.68
2016-05-07T06:18:17.259Z,15.75
2016-05-07T06:19:17.247Z,15.81
2016-05-07T06:20:17.078Z,15.78
2016-05-07T06:21:17.220Z,15.88
2016-05-07T06:22:17.052Z,15.85
2016-05-07T06:23:17.600Z,15.79
2016-05-07T06:24:18.775Z,15.94
2016-05-07T06:25:17.185Z,15.92
2016-05-07T06:26:17.187Z,15.88
2016-05-07T06:27:17.002Z,15.93
2016-05-07T06:28:17.146Z,16.03
2016-05-07T06:29:17.132Z,16.04
2016-05-07T06:30:17.119Z,16.12
2016-05-07T06:31:17.121Z,16.18
2016-05-07T06:32:17.109Z,16.2
2016-05-07T06:33:16.941Z,16.3
2016-05-07T06:34:17.302Z,16.25
2016-05-07T06:35:17.086Z,16.4
2016-05-07T06:36:17.058Z,16.35
2016-05-07T06:37:17.060Z,16.48
2016-05-07T06:38:17.048Z,16.48
2016-05-07T06:39:17.065Z,16.52
2016-05-07T06:40:17.068Z,16.52
2016-05-07T06:41:17.009Z,16.58
2016-05-07T06:42:17.198Z,16.59
2016-05-07T06:43:16.983Z,16.56
2016-05-07T06:44:17.016Z,16.7
2016-05-07T06:45:16.988Z,16.67
2016-05-07T06:46:16.975Z,16.85
2016-05-07T06:47:16.947Z,16.78
2016-05-07T06:48:16.934Z,16.83
2016-05-07T06:49:16.936Z,16.88
2016-05-07T06:50:16.923Z,16.96
2016-05-07T06:51:16.911Z,17.11
2016-05-07T06:52:16.585Z,17.03
2016-05-07T06:53:16.885Z,17.1
2016-05-07T06:54:16.872Z,17.23
2016-05-07T06:55:16.874Z,17.28
2016-05-07T06:56:16.861Z,17.26
2016-05-07T06:57:16.785Z,17.3
2016-05-07T06:58:16.836Z,17.36
2016-05-07T06:59:16.838Z,17.44
2016-05-07T07:00:16.824Z,17.55
2016-05-07T07:01:16.812Z,17.67
2016-05-07T07:02:16.799Z,17.78
2016-05-07T07:03:16.802Z,17.84
2016-05-07T07:04:16.790Z,17.88
2016-05-07T07:05:16.776Z,17.95
2016-05-07T07:06:16.763Z,18.02
2016-05-07T07:07:16.765Z,18.06
2016-05-07T07:08:16.754Z,18.07
2016-05-07T07:09:16.740Z,18.1
2016-05-07T07:10:16.570Z,18.09
2016-05-07T07:11:16.715Z,18.15
2016-05-07T07:12:16.592Z,18.24
2016-05-07T07:13:16.704Z,18.31
2016-05-07T07:14:16.691Z,18.37
2016-05-07T07:15:16.678Z,18.43
2016-05-07T07:16:16.664Z,18.47
2016-05-07T07:17:16.653Z,18.49
2016-05-07T07:18:16.671Z,18.58
2016-05-07T07:19:16.642Z,18.67
2016-05-07T07:20:16.644Z,18.64
2016-05-07T07:21:16.616Z,18.77
2016-05-07T07:22:16.634Z,18.83
2016-05-07T07:23:16.622Z,18.83
2016-05-07T07:24:16.609Z,18.91
2016-05-07T07:25:16.580Z,18.98
2016-05-07T07:26:16.427Z,18.91
2016-05-07T07:27:16.601Z,18.99
2016-05-07T07:28:16.572Z,19.13
2016-05-07T07:29:16.574Z,19.13
2016-05-07T07:30:16.406Z,19.15
2016-05-07T07:31:16.534Z,19.1
2016-05-07T07:32:16.536Z,19.17
2016-05-07T07:33:16.523Z,19.2
2016-05-07T07:34:16.541Z,19.31
2016-05-07T07:35:16.513Z,19.29
2016-05-07T07:36:16.501Z,19.31
2016-05-07T07:37:16.504Z,19.38
2016-05-07T07:38:16.474Z,19.43
2016-05-07T07:39:16.477Z,19.69
2016-05-07T07:40:16.479Z,19.68
2016-05-07T07:41:16.482Z,19.73
2016-05-07T07:42:16.470Z,19.86
2016-05-07T07:43:16.441Z,19.91
2016-05-07T07:44:16.459Z,19.97
2016-05-07T07:45:16.431Z,20.1
2016-05-07T07:46:16.448Z,20.1
2016-05-07T07:47:16.436Z,20.25
2016-05-07T07:48:16.408Z,20.31
2016-05-07T07:49:16.629Z,20.39
2016-05-07T07:50:16.397Z,20.41
2016-05-07T07:51:16.384Z,20.35
2016-05-07T07:52:16.386Z,20.41
2016-05-07T07:53:16.375Z,20.43
2016-05-07T07:54:16.205Z,20.54
2016-05-07T07:55:16.208Z,20.56
2016-05-07T07:56:16.351Z,20.56
2016-05-07T07:57:17.947Z,20.69
2016-05-07T07:58:16.185Z,20.71
2016-05-07T07:59:16.187Z,20.76
2016-05-07T08:00:16.330Z,20.83
2016-05-07T08:01:16.333Z,20.93
2016-05-07T08:02:16.321Z,20.99
2016-05-07T08:03:16.151Z,21.08
2016-05-07T08:04:16.310Z,21.06
2016-05-07T08:05:16.140Z,21.2
2016-05-07T08:06:16.300Z,21.27
2016-05-07T08:07:16.287Z,21.23
2016-05-07T08:08:16.118Z,21.32
2016-05-07T08:09:16.276Z,21.35
2016-05-07T08:10:16.263Z,21.35
2016-05-07T08:11:16.266Z,21.94
2016-05-07T08:12:16.253Z,22.86
2016-05-07T08:13:16.256Z,24.1
2016-05-07T08:14:16.087Z,24.97
2016-05-07T08:15:16.089Z,25.72
2016-05-07T08:16:16.234Z,26.35
2016-05-07T08:17:16.236Z,27.11
2016-05-07T08:18:16.238Z,27.54
2016-05-07T08:19:16.241Z,27.99
2016-05-07T08:20:16.228Z,28.62
2016-05-07T08:21:16.231Z,28.53
2016-05-07T08:22:16.218Z,28.85
2016-05-07T08:23:16.236Z,29.23
2016-05-07T08:24:16.222Z,29.57
2016-05-07T08:25:16.210Z,29.9
2016-05-07T08:26:16.214Z,30.15
2016-05-07T08:27:16.653Z,30.43
2016-05-07T08:28:16.218Z,30.71
2016-05-07T08:29:16.226Z,31.09
2016-05-07T08:30:16.271Z,31.61
2016-05-07T08:31:16.333Z,31.92
2016-05-07T08:32:16.363Z,32.22
2016-05-07T08:33:16.393Z,31.93
2016-05-07T08:34:16.638Z,32.14
2016-05-07T08:35:16.453Z,32.21
2016-05-07T08:36:16.472Z,32.43
2016-05-07T08:37:16.506Z,32.58
2016-05-07T08:38:16.570Z,32.7
2016-05-07T08:39:16.524Z,32.85
2016-05-07T08:40:16.377Z,32.59
2016-05-07T08:41:16.541Z,32.48
2016-05-07T08:42:17.144Z,32.2
2016-05-07T08:43:16.402Z,32.14
2016-05-07T08:44:16.566Z,31.98
2016-05-07T08:45:16.571Z,31.88
2016-05-07T08:46:16.576Z,31.84
2016-05-07T08:47:16.580Z,31.43
2016-05-07T08:48:16.584Z,31.24
2016-05-07T08:49:16.590Z,31.23
2016-05-07T08:50:16.609Z,31.23
2016-05-07T08:51:16.596Z,31.4
2016-05-07T08:52:16.600Z,31.18
2016-05-07T08:53:16.603Z,30.96
2016-05-07T08:54:16.606Z,30.59
2016-05-07T08:55:16.625Z,30.54
2016-05-07T08:56:16.457Z,30.49
2016-05-07T08:57:16.632Z,30.43
2016-05-07T08:58:16.635Z,30
2016-05-07T08:59:16.622Z,30.27
2016-05-07T09:00:16.624Z,30.98
2016-05-07T09:01:16.627Z,31.24
2016-05-07T09:02:16.474Z,31.31
2016-05-07T09:03:16.632Z,31.35
2016-05-07T09:04:16.636Z,31.21
2016-05-07T09:05:16.638Z,30.81
2016-05-07T09:06:16.641Z,30.4
2016-05-07T09:07:16.659Z,30.05
2016-05-07T09:08:16.662Z,29.68
2016-05-07T09:09:16.649Z,29.33
2016-05-07T09:10:16.652Z,29.1
2016-05-07T09:11:16.654Z,29.08
2016-05-07T09:12:17.016Z,29.08
2016-05-07T09:13:16.659Z,29.22
2016-05-07T09:14:16.507Z,29.28
2016-05-07T09:15:16.509Z,29.25
2016-05-07T09:16:16.684Z,29.2
2016-05-07T09:17:16.670Z,29.13
2016-05-07T09:18:16.657Z,28.95
2016-05-07T09:19:16.520Z,28.77
2016-05-07T09:20:16.663Z,28.8
2016-05-07T09:21:16.665Z,28.69
2016-05-07T09:22:16.511Z,28.77
2016-05-07T09:23:16.671Z,28.85
2016-05-07T09:24:16.673Z,28.58
2016-05-07T09:25:16.676Z,28.36
2016-05-07T09:26:16.664Z,28.54
2016-05-07T09:27:17.572Z,28.88
2016-05-07T09:28:16.684Z,29.18
2016-05-07T09:29:16.672Z,29.56
2016-05-07T09:30:16.533Z,29.7
2016-05-07T09:31:16.692Z,29.74
2016-05-07T09:32:16.538Z,29.78
2016-05-07T09:33:16.682Z,29.89
2016-05-07T09:34:16.685Z,29.93
2016-05-07T09:35:16.688Z,29.9
2016-05-07T09:36:16.691Z,29.87
2016-05-07T09:37:16.708Z,29.7
2016-05-07T09:38:16.696Z,29.55
2016-05-07T09:39:16.682Z,29.35
2016-05-07T09:40:16.701Z,28.91
2016-05-07T09:41:16.688Z,28.96
2016-05-07T09:42:16.707Z,29.08
2016-05-07T09:43:16.693Z,29.22
2016-05-07T09:44:16.696Z,29.16
2016-05-07T09:45:16.699Z,28.82
2016-05-07T09:46:16.546Z,28.58
2016-05-07T09:47:16.548Z,28.54
2016-05-07T09:48:16.692Z,28.33
2016-05-07T09:49:16.709Z,28.17
2016-05-07T09:50:16.712Z,28.14
2016-05-07T09:51:16.543Z,28.21
2016-05-07T09:52:16.703Z,28.43
2016-05-07T09:53:16.705Z,29.01
2016-05-07T09:54:16.708Z,29.77
2016-05-07T09:55:16.694Z,30.03
2016-05-07T09:56:16.698Z,29.87
2016-05-07T09:57:16.778Z,29.34
2016-05-07T09:58:16.703Z,29.16
2016-05-07T09:59:16.705Z,29.06
2016-05-07T10:00:16.536Z,28.9
2016-05-07T10:01:16.695Z,28.6
2016-05-07T10:02:16.542Z,27.95
2016-05-07T10:03:16.544Z,27.59
2016-05-07T10:04:16.547Z,27.54
2016-05-07T10:05:16.706Z,27.73
2016-05-07T10:06:16.708Z,28.21
2016-05-07T10:07:16.696Z,28.95
2016-05-07T10:08:16.558Z,29.52
2016-05-07T10:09:16.701Z,29.37
2016-05-07T10:10:16.704Z,29.55
2016-05-07T10:11:16.707Z,30.08
2016-05-07T10:12:16.631Z,30.45
2016-05-07T10:13:16.712Z,30.5
2016-05-07T10:14:16.558Z,30.24
2016-05-07T10:15:16.717Z,30.65
2016-05-07T10:16:16.735Z,30.54
2016-05-07T10:17:16.723Z,30.71
2016-05-07T10:18:16.726Z,31.18
2016-05-07T10:19:16.728Z,31.24
2016-05-07T10:20:16.574Z,31.3
2016-05-07T10:21:16.577Z,31.12
2016-05-07T10:22:16.736Z,31.28
2016-05-07T10:23:16.753Z,31.31
2016-05-07T10:24:16.741Z,31.54
2016-05-07T10:25:16.745Z,31.98
2016-05-07T10:26:16.590Z,31.99
2016-05-07T10:27:16.764Z,32.43
2016-05-07T10:28:16.763Z,32.64
2016-05-07T10:29:16.609Z,32.21
2016-05-07T10:30:16.767Z,31.75
2016-05-07T10:31:16.771Z,31.55
2016-05-07T10:32:16.773Z,31.23
2016-05-07T10:33:16.776Z,31.54
2016-05-07T10:34:16.982Z,31.85
2016-05-07T10:35:16.798Z,31.84
2016-05-07T10:36:16.644Z,31.4
2016-05-07T10:37:16.802Z,30.84
2016-05-07T10:38:16.806Z,30.4
2016-05-07T10:39:16.808Z,30.54
2016-05-07T10:40:16.810Z,30.34
2016-05-07T10:41:16.672Z,30.37
2016-05-07T10:42:16.832Z,30.57
2016-05-07T10:43:16.850Z,30.3
2016-05-07T10:44:16.837Z,30.62
2016-05-07T10:45:16.683Z,31.05
2016-05-07T10:46:16.843Z,31.42
2016-05-07T10:47:16.845Z,31.65
2016-05-07T10:48:16.863Z,32.02
2016-05-07T10:49:16.882Z,31.92
2016-05-07T10:50:16.869Z,32.24
2016-05-07T10:51:16.871Z,32.52
2016-05-07T10:52:16.906Z,32.7
2016-05-07T10:53:16.893Z,32.88
2016-05-07T10:54:16.895Z,33.29
2016-05-07T10:55:17.117Z,33.2
2016-05-07T10:56:16.916Z,32.86
2016-05-07T10:57:17.013Z,32.86
2016-05-07T10:58:16.922Z,32.44
2016-05-07T10:59:16.908Z,32.71
2016-05-07T11:00:16.928Z,32.4
2016-05-07T11:01:16.930Z,31.98
2016-05-07T11:02:16.932Z,31.73
2016-05-07T11:03:16.950Z,32.02
2016-05-07T11:04:16.954Z,32.39
2016-05-07T11:05:16.972Z,32.79
2016-05-07T11:06:16.958Z,33.19
2016-05-07T11:07:16.978Z,33.34
2016-05-07T11:08:16.980Z,33.53
2016-05-07T11:09:16.982Z,33.92
2016-05-07T11:10:16.985Z,34.27
2016-05-07T11:11:17.003Z,34.51
2016-05-07T11:12:16.866Z,34.44
2016-05-07T11:13:17.024Z,34.27
2016-05-07T11:14:17.011Z,34.42
2016-05-07T11:15:17.030Z,34.26
2016-05-07T11:16:17.032Z,34.31
2016-05-07T11:17:17.051Z,34.41
2016-05-07T11:18:17.054Z,34.17
2016-05-07T11:19:17.041Z,34.01
2016-05-07T11:20:17.043Z,33.04
2016-05-07T11:21:16.905Z,33.48
2016-05-07T11:22:17.064Z,33.55
2016-05-07T11:23:17.082Z,33.61
2016-05-07T11:24:16.913Z,33.83
2016-05-07T11:25:17.088Z,34.16
2016-05-07T11:26:17.090Z,34.2
2016-05-07T11:27:17.109Z,33.9
2016-05-07T11:28:17.112Z,33.6
2016-05-07T11:29:17.114Z,33.08
2016-05-07T11:30:17.117Z,33.36
2016-05-07T11:31:17.120Z,33.42
2016-05-07T11:32:17.122Z,33.15
2016-05-07T11:33:17.142Z,33.48
2016-05-07T11:34:17.159Z,33.06
2016-05-07T11:35:17.147Z,32.8
2016-05-07T11:36:17.149Z,32.89
2016-05-07T11:37:16.994Z,32.52
2016-05-07T11:38:17.170Z,31.93
2016-05-07T11:39:17.172Z,31.62
2016-05-07T11:40:17.191Z,31.79
2016-05-07T11:41:17.208Z,31.91
2016-05-07T11:42:17.650Z,31.99
2016-05-07T11:43:17.199Z,32.1
2016-05-07T11:44:17.045Z,32.35
2016-05-07T11:45:17.205Z,32.84
2016-05-07T11:46:17.222Z,33.08
2016-05-07T11:47:17.225Z,33.1
2016-05-07T11:48:17.227Z,33.45
2016-05-07T11:49:17.230Z,33.65
2016-05-07T11:50:17.265Z,33.94
2016-05-07T11:51:17.252Z,33.64
2016-05-07T11:52:17.270Z,33.98
2016-05-07T11:53:17.273Z,33.85
2016-05-07T11:54:17.104Z,34.02
2016-05-07T11:55:17.262Z,34.45
2016-05-07T11:56:17.281Z,34.73
2016-05-07T11:57:17.548Z,34.89
2016-05-07T11:58:17.287Z,34.95
2016-05-07T11:59:17.304Z,35.2
2016-05-07T12:00:17.307Z,35.18
2016-05-07T12:01:17.356Z,35.33
2016-05-07T12:02:17.328Z,35.57
2016-05-07T12:03:17.315Z,35.08
2016-05-07T12:04:17.177Z,34.76
2016-05-07T12:05:17.352Z,33.87
2016-05-07T12:06:17.355Z,34.17
2016-05-07T12:07:17.358Z,34.38
2016-05-07T12:08:17.235Z,34.01
2016-05-07T12:09:17.206Z,34.05
2016-05-07T12:10:17.584Z,34.35
2016-05-07T12:11:17.383Z,34.63
2016-05-07T12:12:17.386Z,34.45
2016-05-07T12:13:17.389Z,33.95
2016-05-07T12:14:17.407Z,33.64
2016-05-07T12:15:17.410Z,33.15
2016-05-07T12:16:17.413Z,33.1
2016-05-07T12:17:17.415Z,33.42
2016-05-07T12:18:17.433Z,33.8
2016-05-07T12:19:17.436Z,34.14
2016-05-07T12:20:17.439Z,34.46
2016-05-07T12:21:17.441Z,34.79
2016-05-07T12:22:17.460Z,35.07
2016-05-07T12:23:17.479Z,34.92
2016-05-07T12:24:17.465Z,34.48
2016-05-07T12:25:17.468Z,34.61
2016-05-07T12:26:17.486Z,34.92
2016-05-07T12:27:17.990Z,34.88
2016-05-07T12:28:17.492Z,34.39
2016-05-07T12:29:17.510Z,33.83
2016-05-07T12:30:17.512Z,33.61
2016-05-07T12:31:17.515Z,32.88
2016-05-07T12:32:17.518Z,32.15
2016-05-07T12:33:17.520Z,32.37
2016-05-07T12:34:17.540Z,32.84
2016-05-07T12:35:17.541Z,33.29
2016-05-07T12:36:17.545Z,33.61
2016-05-07T12:37:17.391Z,33.97
2016-05-07T12:38:17.409Z,34.26
2016-05-07T12:39:17.411Z,34.32
2016-05-07T12:40:17.415Z,34.29
2016-05-07T12:41:17.574Z,34.44
2016-05-07T12:42:17.639Z,34.6
2016-05-07T12:43:17.657Z,34.69
2016-05-07T12:44:17.285Z,34.39
2016-05-07T12:45:17.600Z,34.58
2016-05-07T12:46:17.619Z,34.73
2016-05-07T12:47:17.605Z,34.76
2016-05-07T12:48:17.624Z,34.96
2016-05-07T12:49:17.627Z,34.91
2016-05-07T12:50:17.473Z,35.03
2016-05-07T12:51:17.647Z,34.7
2016-05-07T12:52:17.493Z,34.83
2016-05-07T12:53:17.652Z,35.01
2016-05-07T12:54:17.498Z,35.07
2016-05-07T12:55:17.674Z,34.89